sensor_id;sensor_type;location;lat;lon;timestamp;temperature;humidity
21417;DHT22;10869;52.238;10.716;2023-05-17T03:03:50;6.40;99.90
21417;DHT22;10869;52.238;10.716;2023-05-17T03:06:16;6.40;99.90
21417;DHT22;10869;52.238;10.716;2023-05-17T03:08:42;6.30;99.90
21417;DHT22;10869;52.238;10.716;2023-05-17T03:11:08;6.30;99.90
21417;DHT22;10869;52.238;10.716;2023-05-17T03:13:33;6.30;99.90
21417;DHT22;10869;52.238;10.716;2023-05-17T03:16:00;6.30;99.90
21417;DHT22;10869;52.238;10.716;2023-05-17T03:18:25;6.30;99.90
21417;DHT22;10869;52.238;10.716;2023-05-17T03:20:51;6.30;99.90
21417;DHT22;10869;52.238;10.716;2023-05-17T03:23:17;6.30;99.90
21417;DHT22;10869;52.238;10.716;2023-05-17T03:25:43;6.30;99.90
21417;DHT22;10869;52.238;10.716;2023-05-17T03:28:08;6.30;99.90
21417;DHT22;10869;52.238;10.716;2023-05-17T03:30:34;6.30;99.90
21417;DHT22;10869;52.238;10.716;2023-05-17T03:33:00;6.30;99.90
21417;DHT22;10869;52.238;10.716;2023-05-17T03:35:26;6.40;99.90
21417;DHT22;10869;52.238;10.716;2023-05-17T03:41:15;6.40;99.90
21417;DHT22;10869;52.238;10.716;2023-05-17T03:43:41;6.40;99.90
21417;DHT22;10869;52.238;10.716;2023-05-17T03:46:06;6.50;99.90
21417;DHT22;10869;52.238;10.716;2023-05-17T03:48:32;6.50;99.90
21417;DHT22;10869;52.238;10.716;2023-05-17T03:50:58;6.50;99.90
21417;DHT22;10869;52.238;10.716;2023-05-17T03:53:24;6.60;99.90
21417;DHT22;10869;52.238;10.716;2023-05-17T03:55:49;6.60;99.90
21417;DHT22;10869;52.238;10.716;2023-05-17T03:58:15;6.60;99.90
21417;DHT22;10869;52.238;10.716;2023-05-17T04:00:41;6.70;99.90
21417;DHT22;10869;52.238;10.716;2023-05-17T04:03:07;6.70;99.90
21417;DHT22;10869;52.238;10.716;2023-05-17T04:05:33;6.80;99.90
21417;DHT22;10869;52.238;10.716;2023-05-17T04:07:58;6.80;99.90
21417;DHT22;10869;52.238;10.716;2023-05-17T04:10:24;6.80;99.90
21417;DHT22;10869;52.238;10.716;2023-05-17T04:12:50;6.90;99.90
21417;DHT22;10869;52.238;10.716;2023-05-17T04:15:16;6.90;99.90
21417;DHT22;10869;52.238;10.716;2023-05-17T04:17:41;6.90;99.90
21417;DHT22;10869;52.238;10.716;2023-05-17T04:20:07;7.00;99.90
21417;DHT22;10869;52.238;10.716;2023-05-17T04:22:33;7.10;99.90
21417;DHT22;10869;52.238;10.716;2023-05-17T04:24:59;7.10;99.90
21417;DHT22;10869;52.238;10.716;2023-05-17T04:27:25;7.30;99.90
21417;DHT22;10869;52.238;10.716;2023-05-17T04:29:50;7.40;99.90
21417;DHT22;10869;52.238;10.716;2023-05-17T04:32:17;7.50;99.90
21417;DHT22;10869;52.238;10.716;2023-05-17T04:34:43;7.60;99.90
21417;DHT22;10869;52.238;10.716;2023-05-17T04:37:09;7.70;99.90
21417;DHT22;10869;52.238;10.716;2023-05-17T04:39:34;7.90;99.90
21417;DHT22;10869;52.238;10.716;2023-05-17T04:42:00;8.40;99.90
21417;DHT22;10869;52.238;10.716;2023-05-17T04:44:26;8.50;99.90
21417;DHT22;10869;52.238;10.716;2023-05-17T04:46:52;8.50;99.90
21417;DHT22;10869;52.238;10.716;2023-05-17T04:49:18;8.60;99.90
21417;DHT22;10869;52.238;10.716;2023-05-17T04:51:44;8.90;99.90
21417;DHT22;10869;52.238;10.716;2023-05-17T04:54:09;8.90;99.90
21417;DHT22;10869;52.238;10.716;2023-05-17T04:56:35;9.00;99.90
21417;DHT22;10869;52.238;10.716;2023-05-17T04:59:02;9.10;99.90
21417;DHT22;10869;52.238;10.716;2023-05-17T05:01:28;9.10;99.90
21417;DHT22;10869;52.238;10.716;2023-05-17T05:03:56;9.30;99.90
21417;DHT22;10869;52.238;10.716;2023-05-17T05:06:22;9.50;99.90
21417;DHT22;10869;52.238;10.716;2023-05-17T05:08:48;9.90;99.90
21417;DHT22;10869;52.238;10.716;2023-05-17T05:11:13;10.20;99.90
21417;DHT22;10869;52.238;10.716;2023-05-17T05:13:39;10.30;99.90
21417;DHT22;10869;52.238;10.716;2023-05-17T05:16:06;10.40;99.90
21417;DHT22;10869;52.238;10.716;2023-05-17T05:18:32;10.60;99.90
21417;DHT22;10869;52.238;10.716;2023-05-17T05:20:58;10.50;99.90
21417;DHT22;10869;52.238;10.716;2023-05-17T05:23:25;10.40;99.90
21417;DHT22;10869;52.238;10.716;2023-05-17T05:25:51;10.40;99.90
21417;DHT22;10869;52.238;10.716;2023-05-17T05:28:16;10.50;99.90
21417;DHT22;10869;52.238;10.716;2023-05-17T05:30:42;10.60;99.90
21417;DHT22;10869;52.238;10.716;2023-05-17T05:33:08;10.70;99.90
21417;DHT22;10869;52.238;10.716;2023-05-17T05:35:35;10.90;99.90
21417;DHT22;10869;52.238;10.716;2023-05-17T05:38:04;11.10;99.90
21417;DHT22;10869;52.238;10.716;2023-05-17T05:40:29;11.50;99.90
21417;DHT22;10869;52.238;10.716;2023-05-17T05:42:55;12.10;99.90
21417;DHT22;10869;52.238;10.716;2023-05-17T05:45:21;12.20;99.90
21417;DHT22;10869;52.238;10.716;2023-05-17T05:47:47;12.20;99.90
21417;DHT22;10869;52.238;10.716;2023-05-17T05:50:12;12.20;99.90
21417;DHT22;10869;52.238;10.716;2023-05-17T05:52:38;11.90;99.90
21417;DHT22;10869;52.238;10.716;2023-05-17T05:55:04;12.00;99.90
21417;DHT22;10869;52.238;10.716;2023-05-17T05:57:34;11.80;99.90
21417;DHT22;10869;52.238;10.716;2023-05-17T06:00:13;11.80;99.90
21417;DHT22;10869;52.238;10.716;2023-05-17T06:16:23;10.90;99.90
21417;DHT22;10869;52.238;10.716;2023-05-17T06:18:49;10.50;99.90
21417;DHT22;10869;52.238;10.716;2023-05-17T08:27:56;12.60;99.90
21417;DHT22;10869;52.238;10.716;2023-05-17T08:30:22;12.50;99.90
21417;DHT22;10869;52.238;10.716;2023-05-17T08:32:51;12.40;99.40
21417;DHT22;10869;52.238;10.716;2023-05-17T09:50:25;14.80;90.50
21417;DHT22;10869;52.238;10.716;2023-05-17T09:52:51;14.70;90.80
21417;DHT22;10869;52.238;10.716;2023-05-17T09:55:17;14.90;90.60
21417;DHT22;10869;52.238;10.716;2023-05-17T09:57:43;15.50;90.80
21417;DHT22;10869;52.238;10.716;2023-05-17T10:00:35;15.50;88.80
21417;DHT22;10869;52.238;10.716;2023-05-17T10:09:00;15.50;90.10
21417;DHT22;10869;52.238;10.716;2023-05-17T10:11:29;15.20;91.20
21417;DHT22;10869;52.238;10.716;2023-05-17T10:14:10;15.20;91.00
21417;DHT22;10869;52.238;10.716;2023-05-17T10:16:37;15.30;91.00
21417;DHT22;10869;52.238;10.716;2023-05-17T10:29:25;15.20;90.50
21417;DHT22;10869;52.238;10.716;2023-05-17T10:31:51;15.40;89.10
21417;DHT22;10869;52.238;10.716;2023-05-17T10:34:18;15.40;89.70
21417;DHT22;10869;52.238;10.716;2023-05-17T10:37:05;15.30;89.90
21417;DHT22;10869;52.238;10.716;2023-05-17T10:50:57;16.50;87.10
21417;DHT22;10869;52.238;10.716;2023-05-17T11:09:12;16.60;85.30
21417;DHT22;10869;52.238;10.716;2023-05-17T11:15:12;16.40;86.70
21417;DHT22;10869;52.238;10.716;2023-05-17T11:21:07;16.30;87.00
21417;DHT22;10869;52.238;10.716;2023-05-17T11:23:33;17.20;86.30
21417;DHT22;10869;52.238;10.716;2023-05-17T11:26:32;17.70;82.60
21417;DHT22;10869;52.238;10.716;2023-05-17T11:32:31;18.00;81.70
21417;DHT22;10869;52.238;10.716;2023-05-17T11:38:22;17.10;81.50
21417;DHT22;10869;52.238;10.716;2023-05-17T11:43:29;17.20;79.40
21417;DHT22;10869;52.238;10.716;2023-05-17T11:45:57;16.70;80.40
21417;DHT22;10869;52.238;10.716;2023-05-17T11:48:29;17.10;81.00
21417;DHT22;10869;52.238;10.716;2023-05-17T11:54:21;18.30;81.30
21417;DHT22;10869;52.238;10.716;2023-05-17T11:56:48;18.20;78.80
21417;DHT22;10869;52.238;10.716;2023-05-17T11:59:23;18.00;76.90
21417;DHT22;10869;52.238;10.716;2023-05-17T12:01:49;17.90;80.00
21417;DHT22;10869;52.238;10.716;2023-05-17T12:04:23;18.40;76.30
21417;DHT22;10869;52.238;10.716;2023-05-17T12:10:12;18.60;76.10
21417;DHT22;10869;52.238;10.716;2023-05-17T12:12:40;18.60;78.70
21417;DHT22;10869;52.238;10.716;2023-05-17T12:15:06;18.70;78.60
21417;DHT22;10869;52.238;10.716;2023-05-17T12:17:40;18.90;76.70
21417;DHT22;10869;52.238;10.716;2023-05-17T12:20:08;18.70;77.20
21417;DHT22;10869;52.238;10.716;2023-05-17T12:22:34;18.10;77.20
21417;DHT22;10869;52.238;10.716;2023-05-17T12:25:22;17.70;78.80
21417;DHT22;10869;52.238;10.716;2023-05-17T12:30:38;17.30;79.70
21417;DHT22;10869;52.238;10.716;2023-05-17T12:33:05;17.40;79.20
21417;DHT22;10869;52.238;10.716;2023-05-17T12:35:32;17.50;79.60
21417;DHT22;10869;52.238;10.716;2023-05-17T12:37:58;17.80;78.10
21417;DHT22;10869;52.238;10.716;2023-05-17T12:40:24;18.40;77.80
21417;DHT22;10869;52.238;10.716;2023-05-17T12:42:51;19.10;77.20
21417;DHT22;10869;52.238;10.716;2023-05-17T12:45:25;19.30;76.30
21417;DHT22;10869;52.238;10.716;2023-05-17T12:47:51;18.80;75.80
21417;DHT22;10869;52.238;10.716;2023-05-17T12:50:27;18.70;78.20
21417;DHT22;10869;52.238;10.716;2023-05-17T12:52:54;18.80;77.90
21417;DHT22;10869;52.238;10.716;2023-05-17T12:55:20;18.90;76.90
21417;DHT22;10869;52.238;10.716;2023-05-17T12:57:53;18.90;74.90
21417;DHT22;10869;52.238;10.716;2023-05-17T13:00:20;18.70;73.00
21417;DHT22;10869;52.238;10.716;2023-05-17T13:02:46;18.10;74.80
21417;DHT22;10869;52.238;10.716;2023-05-17T13:05:16;18.40;78.20
21417;DHT22;10869;52.238;10.716;2023-05-17T13:07:48;18.40;76.40
21417;DHT22;10869;52.238;10.716;2023-05-17T13:10:25;18.20;76.50
21417;DHT22;10869;52.238;10.716;2023-05-17T13:12:58;18.30;76.20
21417;DHT22;10869;52.238;10.716;2023-05-17T13:15:31;18.70;75.20
21417;DHT22;10869;52.238;10.716;2023-05-17T13:17:58;18.90;73.00
21417;DHT22;10869;52.238;10.716;2023-05-17T13:20:25;18.80;74.80
21417;DHT22;10869;52.238;10.716;2023-05-17T13:22:51;18.90;74.70
21417;DHT22;10869;52.238;10.716;2023-05-17T13:25:19;18.30;73.30
21417;DHT22;10869;52.238;10.716;2023-05-17T13:27:45;17.70;75.30
21417;DHT22;10869;52.238;10.716;2023-05-17T13:30:16;17.90;75.10
21417;DHT22;10869;52.238;10.716;2023-05-17T13:32:43;18.10;75.20
21417;DHT22;10869;52.238;10.716;2023-05-17T13:35:09;17.80;75.60
21417;DHT22;10869;52.238;10.716;2023-05-17T13:37:36;17.50;76.00
21417;DHT22;10869;52.238;10.716;2023-05-17T13:40:02;17.40;75.80
21417;DHT22;10869;52.238;10.716;2023-05-17T13:42:28;17.50;77.00
21417;DHT22;10869;52.238;10.716;2023-05-17T13:44:54;17.30;76.40
21417;DHT22;10869;52.238;10.716;2023-05-17T13:47:20;16.90;77.10
21417;DHT22;10869;52.238;10.716;2023-05-17T13:49:47;17.30;78.60
21417;DHT22;10869;52.238;10.716;2023-05-17T13:52:14;17.50;77.50
21417;DHT22;10869;52.238;10.716;2023-05-17T13:54:44;17.20;76.50
21417;DHT22;10869;52.238;10.716;2023-05-17T13:57:10;17.00;76.60
21417;DHT22;10869;52.238;10.716;2023-05-17T13:59:36;17.40;76.10
21417;DHT22;10869;52.238;10.716;2023-05-17T14:02:02;17.40;74.50
21417;DHT22;10869;52.238;10.716;2023-05-17T14:04:28;17.40;74.30
21417;DHT22;10869;52.238;10.716;2023-05-17T14:06:54;16.80;77.20
21417;DHT22;10869;52.238;10.716;2023-05-17T14:09:20;16.70;75.60
21417;DHT22;10869;52.238;10.716;2023-05-17T14:11:46;17.00;77.00
21417;DHT22;10869;52.238;10.716;2023-05-17T14:14:12;17.50;76.30
21417;DHT22;10869;52.238;10.716;2023-05-17T14:16:38;17.80;76.30
21417;DHT22;10869;52.238;10.716;2023-05-17T14:19:03;17.90;76.60
21417;DHT22;10869;52.238;10.716;2023-05-17T14:21:31;17.90;74.90
21417;DHT22;10869;52.238;10.716;2023-05-17T14:23:57;17.80;75.40
21417;DHT22;10869;52.238;10.716;2023-05-17T14:26:22;17.60;75.40
21417;DHT22;10869;52.238;10.716;2023-05-17T14:28:48;17.50;77.30
21417;DHT22;10869;52.238;10.716;2023-05-17T14:31:14;17.50;76.40
21417;DHT22;10869;52.238;10.716;2023-05-17T14:33:40;17.90;76.70
21417;DHT22;10869;52.238;10.716;2023-05-17T14:36:06;17.70;76.00
21417;DHT22;10869;52.238;10.716;2023-05-17T14:38:36;17.60;74.30
21417;DHT22;10869;52.238;10.716;2023-05-17T14:41:05;17.00;75.20
21417;DHT22;10869;52.238;10.716;2023-05-17T14:43:32;16.80;76.90
21417;DHT22;10869;52.238;10.716;2023-05-17T14:45:58;17.00;76.20
21417;DHT22;10869;52.238;10.716;2023-05-17T14:48:28;16.90;76.60
21417;DHT22;10869;52.238;10.716;2023-05-17T14:50:55;16.40;77.30
21417;DHT22;10869;52.238;10.716;2023-05-17T14:53:21;16.20;77.80
21417;DHT22;10869;52.238;10.716;2023-05-17T14:55:47;16.10;78.10
21417;DHT22;10869;52.238;10.716;2023-05-17T14:58:14;16.20;79.20
21417;DHT22;10869;52.238;10.716;2023-05-17T15:00:40;16.40;77.90
21417;DHT22;10869;52.238;10.716;2023-05-17T15:03:11;16.60;78.00
21417;DHT22;10869;52.238;10.716;2023-05-17T15:05:40;17.00;75.50
21417;DHT22;10869;52.238;10.716;2023-05-17T15:08:06;17.10;76.80
21417;DHT22;10869;52.238;10.716;2023-05-17T15:10:33;17.10;77.30
21417;DHT22;10869;52.238;10.716;2023-05-17T15:12:59;17.20;76.70
21417;DHT22;10869;52.238;10.716;2023-05-17T15:15:26;17.10;76.40
21417;DHT22;10869;52.238;10.716;2023-05-17T15:17:52;17.20;77.70
21417;DHT22;10869;52.238;10.716;2023-05-17T15:20:18;17.30;76.80
21417;DHT22;10869;52.238;10.716;2023-05-17T15:22:44;17.30;76.70
21417;DHT22;10869;52.238;10.716;2023-05-17T15:25:13;17.30;76.00
21417;DHT22;10869;52.238;10.716;2023-05-17T15:27:40;16.80;74.80
21417;DHT22;10869;52.238;10.716;2023-05-17T15:30:10;16.40;75.70
21417;DHT22;10869;52.238;10.716;2023-05-17T15:32:40;16.20;75.80
21417;DHT22;10869;52.238;10.716;2023-05-17T15:37:43;16.00;76.70
21417;DHT22;10869;52.238;10.716;2023-05-17T15:40:09;16.20;76.60
21417;DHT22;10869;52.238;10.716;2023-05-17T15:42:36;16.40;77.50
21417;DHT22;10869;52.238;10.716;2023-05-17T15:45:02;16.60;77.60
21417;DHT22;10869;52.238;10.716;2023-05-17T15:47:36;16.70;76.50
21417;DHT22;10869;52.238;10.716;2023-05-17T15:50:05;16.80;77.60
21417;DHT22;10869;52.238;10.716;2023-05-17T15:52:32;16.60;78.70
21417;DHT22;10869;52.238;10.716;2023-05-17T15:54:58;16.30;78.00
21417;DHT22;10869;52.238;10.716;2023-05-17T15:57:24;16.10;78.80
21417;DHT22;10869;52.238;10.716;2023-05-17T15:59:50;16.30;78.60
21417;DHT22;10869;52.238;10.716;2023-05-17T16:02:18;16.50;79.10
21417;DHT22;10869;52.238;10.716;2023-05-17T16:04:46;16.70;78.60
21417;DHT22;10869;52.238;10.716;2023-05-17T16:07:12;16.80;78.80
21417;DHT22;10869;52.238;10.716;2023-05-17T16:13:04;16.40;78.60
21417;DHT22;10869;52.238;10.716;2023-05-17T16:15:30;16.10;77.00
21417;DHT22;10869;52.238;10.716;2023-05-17T16:17:58;15.70;78.00
21417;DHT22;10869;52.238;10.716;2023-05-17T16:20:25;15.40;79.60
21417;DHT22;10869;52.238;10.716;2023-05-17T16:22:53;15.10;80.60
21417;DHT22;10869;52.238;10.716;2023-05-17T16:25:21;14.90;81.60
21417;DHT22;10869;52.238;10.716;2023-05-17T16:27:49;14.70;80.60
21417;DHT22;10869;52.238;10.716;2023-05-17T16:30:17;14.50;81.80
21417;DHT22;10869;52.238;10.716;2023-05-17T16:32:45;14.50;80.50
21417;DHT22;10869;52.238;10.716;2023-05-17T16:35:12;14.60;82.40
21417;DHT22;10869;52.238;10.716;2023-05-17T16:37:38;14.70;82.00
21417;DHT22;10869;52.238;10.716;2023-05-17T16:40:05;14.70;81.30
21417;DHT22;10869;52.238;10.716;2023-05-17T16:42:34;14.60;81.70
21417;DHT22;10869;52.238;10.716;2023-05-17T16:45:16;14.50;81.70
21417;DHT22;10869;52.238;10.716;2023-05-17T16:47:42;14.40;82.40
21417;DHT22;10869;52.238;10.716;2023-05-17T16:50:08;14.40;83.60
21417;DHT22;10869;52.238;10.716;2023-05-17T16:52:35;14.30;82.10
21417;DHT22;10869;52.238;10.716;2023-05-17T16:55:02;14.20;82.70
21417;DHT22;10869;52.238;10.716;2023-05-17T17:00:04;14.20;84.40
21417;DHT22;10869;52.238;10.716;2023-05-17T17:05:57;14.00;83.10
21417;DHT22;10869;52.238;10.716;2023-05-17T17:10:59;14.00;85.20
21417;DHT22;10869;52.238;10.716;2023-05-17T17:13:25;13.90;84.60
21417;DHT22;10869;52.238;10.716;2023-05-17T17:15:51;13.90;84.20
21417;DHT22;10869;52.238;10.716;2023-05-17T17:18:17;13.90;85.10
21417;DHT22;10869;52.238;10.716;2023-05-17T17:20:44;13.90;85.40
21417;DHT22;10869;52.238;10.716;2023-05-17T17:23:11;13.80;85.10
21417;DHT22;10869;52.238;10.716;2023-05-17T18:07:19;12.70;89.10
21417;DHT22;10869;52.238;10.716;2023-05-17T18:29:09;11.90;90.30
21417;DHT22;10869;52.238;10.716;2023-05-17T18:31:34;11.80;90.50
21417;DHT22;10869;52.238;10.716;2023-05-17T18:34:03;11.70;91.40
21417;DHT22;10869;52.238;10.716;2023-05-17T18:36:29;11.60;92.60
21417;DHT22;10869;52.238;10.716;2023-05-17T18:39:02;11.50;93.10
21417;DHT22;10869;52.238;10.716;2023-05-17T18:49:19;10.90;92.70
21417;DHT22;10869;52.238;10.716;2023-05-17T18:51:47;10.80;93.90
21417;DHT22;10869;52.238;10.716;2023-05-17T18:54:15;10.60;93.70
21417;DHT22;10869;52.238;10.716;2023-05-17T18:56:42;10.50;94.20
21417;DHT22;10869;52.238;10.716;2023-05-17T18:59:21;10.40;94.50
21417;DHT22;10869;52.238;10.716;2023-05-17T19:01:54;10.30;95.30
21417;DHT22;10869;52.238;10.716;2023-05-17T19:09:34;10.00;94.70
21417;DHT22;10869;52.238;10.716;2023-05-17T19:12:20;9.90;95.00
21417;DHT22;10869;52.238;10.716;2023-05-17T19:14:46;9.80;95.60
21417;DHT22;10869;52.238;10.716;2023-05-17T19:17:12;9.70;96.40
21417;DHT22;10869;52.238;10.716;2023-05-17T19:23:00;9.50;96.60
21417;DHT22;10869;52.238;10.716;2023-05-17T19:25:29;9.40;96.60
21417;DHT22;10869;52.238;10.716;2023-05-17T19:27:55;9.30;96.60
21417;DHT22;10869;52.238;10.716;2023-05-17T19:43:22;9.10;97.90
21417;DHT22;10869;52.238;10.716;2023-05-17T19:45:51;9.00;98.00
21417;DHT22;10869;52.238;10.716;2023-05-17T19:48:20;8.90;98.30
21417;DHT22;10869;52.238;10.716;2023-05-17T19:50:52;8.80;98.60
21417;DHT22;10869;52.238;10.716;2023-05-17T19:53:20;8.70;98.80
21417;DHT22;10869;52.238;10.716;2023-05-17T19:55:50;8.70;98.90
21417;DHT22;10869;52.238;10.716;2023-05-17T19:58:16;8.60;99.10
21417;DHT22;10869;52.238;10.716;2023-05-17T20:04:10;8.40;99.60
21417;DHT22;10869;52.238;10.716;2023-05-17T20:27:22;7.60;99.90
21417;DHT22;10869;52.238;10.716;2023-05-17T20:29:47;7.50;99.90
21417;DHT22;10869;52.238;10.716;2023-05-17T20:32:13;7.40;99.90
21417;DHT22;10869;52.238;10.716;2023-05-17T20:34:47;7.30;99.90
21417;DHT22;10869;52.238;10.716;2023-05-17T20:41:14;7.20;99.90
21417;DHT22;10869;52.238;10.716;2023-05-17T20:46:41;6.90;99.90
21417;DHT22;10869;52.238;10.716;2023-05-17T20:49:07;6.80;99.90
21417;DHT22;10869;52.238;10.716;2023-05-17T20:51:34;6.70;99.90
21417;DHT22;10869;52.238;10.716;2023-05-17T20:53:59;6.70;99.90
21417;DHT22;10869;52.238;10.716;2023-05-17T20:56:25;6.60;99.90
21417;DHT22;10869;52.238;10.716;2023-05-17T20:58:51;6.50;99.90
21417;DHT22;10869;52.238;10.716;2023-05-17T21:01:17;6.50;99.90
21417;DHT22;10869;52.238;10.716;2023-05-17T21:03:43;6.40;99.90
21417;DHT22;10869;52.238;10.716;2023-05-17T21:09:35;6.30;99.90
21417;DHT22;10869;52.238;10.716;2023-05-17T21:12:04;6.20;99.90
21417;DHT22;10869;52.238;10.716;2023-05-17T21:14:30;6.10;99.90
21417;DHT22;10869;52.238;10.716;2023-05-17T21:19:33;6.00;99.90
21417;DHT22;10869;52.238;10.716;2023-05-17T21:22:02;5.90;99.90
21417;DHT22;10869;52.238;10.716;2023-05-17T21:24:35;5.90;99.90
21417;DHT22;10869;52.238;10.716;2023-05-17T21:30:29;5.90;99.90
21417;DHT22;10869;52.238;10.716;2023-05-17T21:33:09;5.80;99.90
21417;DHT22;10869;52.238;10.716;2023-05-17T22:11:56;5.30;99.90
21417;DHT22;10869;52.238;10.716;2023-05-17T22:14:55;5.20;99.90
21417;DHT22;10869;52.238;10.716;2023-05-17T22:17:43;5.20;99.90
21417;DHT22;10869;52.238;10.716;2023-05-17T22:20:15;5.10;99.90
21417;DHT22;10869;52.238;10.716;2023-05-17T22:22:52;5.00;99.90
21417;DHT22;10869;52.238;10.716;2023-05-17T22:25:21;5.00;99.90
21417;DHT22;10869;52.238;10.716;2023-05-17T22:27:49;5.00;99.90
21417;DHT22;10869;52.238;10.716;2023-05-17T22:30:37;4.90;99.90
21417;DHT22;10869;52.238;10.716;2023-05-17T22:33:08;4.90;99.90
21417;DHT22;10869;52.238;10.716;2023-05-17T22:35:51;4.90;99.90
21417;DHT22;10869;52.238;10.716;2023-05-17T22:38:20;4.80;99.90
21417;DHT22;10869;52.238;10.716;2023-05-17T22:41:14;4.80;99.90
21417;DHT22;10869;52.238;10.716;2023-05-17T22:43:50;4.80;99.90
21417;DHT22;10869;52.238;10.716;2023-05-17T22:46:21;4.80;99.90
21417;DHT22;10869;52.238;10.716;2023-05-17T22:48:55;4.70;99.90
21417;DHT22;10869;52.238;10.716;2023-05-17T22:51:36;4.70;99.90
21417;DHT22;10869;52.238;10.716;2023-05-17T22:54:26;4.70;99.90
